sensor_id;sensor_type;location;lat;lon;timestamp;P1;durP1;ratioP1;P2;durP2;ratioP2
12947;SDS011;6539;49.476;8.484;2022-10-16T00:01:30;6.37;;;2.50;;
12947;SDS011;6539;49.476;8.484;2022-10-16T00:03:57;5.83;;;2.43;;
12947;SDS011;6539;49.476;8.484;2022-10-16T00:06:24;3.53;;;2.20;;
12947;SDS011;6539;49.476;8.484;2022-10-16T00:08:55;4.10;;;2.20;;
12947;SDS011;6539;49.476;8.484;2022-10-16T00:11:22;5.93;;;2.40;;
12947;SDS011;6539;49.476;8.484;2022-10-16T00:13:56;2.50;;;2.30;;
12947;SDS011;6539;49.476;8.484;2022-10-16T00:16:25;5.03;;;3.03;;
12947;SDS011;6539;49.476;8.484;2022-10-16T00:18:54;2.40;;;2.20;;
12947;SDS011;6539;49.476;8.484;2022-10-16T00:21:24;2.17;;;1.97;;
12947;SDS011;6539;49.476;8.484;2022-10-16T00:23:58;4.03;;;2.10;;
12947;SDS011;6539;49.476;8.484;2022-10-16T00:26:33;3.63;;;2.00;;
12947;SDS011;6539;49.476;8.484;2022-10-16T00:29:03;3.50;;;2.70;;
12947;SDS011;6539;49.476;8.484;2022-10-16T00:31:31;3.50;;;2.30;;
12947;SDS011;6539;49.476;8.484;2022-10-16T00:33:57;3.13;;;2.40;;
12947;SDS011;6539;49.476;8.484;2022-10-16T00:36:28;4.53;;;2.77;;
12947;SDS011;6539;49.476;8.484;2022-10-16T00:38:54;4.00;;;2.23;;
12947;SDS011;6539;49.476;8.484;2022-10-16T00:41:25;3.27;;;2.50;;
12947;SDS011;6539;49.476;8.484;2022-10-16T00:43:57;2.47;;;2.00;;
12947;SDS011;6539;49.476;8.484;2022-10-16T00:46:46;3.20;;;2.37;;
12947;SDS011;6539;49.476;8.484;2022-10-16T00:49:16;5.60;;;2.43;;
12947;SDS011;6539;49.476;8.484;2022-10-16T00:51:47;3.80;;;2.17;;
12947;SDS011;6539;49.476;8.484;2022-10-16T00:54:17;2.03;;;1.90;;
12947;SDS011;6539;49.476;8.484;2022-10-16T00:56:51;3.23;;;2.03;;
12947;SDS011;6539;49.476;8.484;2022-10-16T00:59:27;4.50;;;2.10;;
12947;SDS011;6539;49.476;8.484;2022-10-16T01:02:06;2.43;;;1.87;;
12947;SDS011;6539;49.476;8.484;2022-10-16T01:04:38;3.57;;;2.47;;
12947;SDS011;6539;49.476;8.484;2022-10-16T01:07:14;3.90;;;2.40;;
12947;SDS011;6539;49.476;8.484;2022-10-16T01:12:40;2.63;;;2.00;;
12947;SDS011;6539;49.476;8.484;2022-10-16T01:17:53;3.27;;;2.30;;
12947;SDS011;6539;49.476;8.484;2022-10-16T01:25:54;2.73;;;2.20;;
12947;SDS011;6539;49.476;8.484;2022-10-16T01:28:49;2.23;;;2.03;;
12947;SDS011;6539;49.476;8.484;2022-10-16T01:31:26;5.33;;;2.13;;
12947;SDS011;6539;49.476;8.484;2022-10-16T01:34:10;2.80;;;1.97;;
12947;SDS011;6539;49.476;8.484;2022-10-16T01:36:50;4.77;;;2.23;;
12947;SDS011;6539;49.476;8.484;2022-10-16T01:39:22;5.13;;;2.30;;
12947;SDS011;6539;49.476;8.484;2022-10-16T01:41:55;3.30;;;2.10;;
12947;SDS011;6539;49.476;8.484;2022-10-16T01:44:33;2.20;;;1.93;;
12947;SDS011;6539;49.476;8.484;2022-10-16T01:47:08;2.07;;;1.60;;
12947;SDS011;6539;49.476;8.484;2022-10-16T01:49:38;3.00;;;2.17;;
12947;SDS011;6539;49.476;8.484;2022-10-16T01:52:13;3.70;;;1.90;;
12947;SDS011;6539;49.476;8.484;2022-10-16T01:54:49;3.80;;;2.00;;
12947;SDS011;6539;49.476;8.484;2022-10-16T01:57:21;9.13;;;3.10;;
12947;SDS011;6539;49.476;8.484;2022-10-16T01:59:53;4.43;;;2.10;;
12947;SDS011;6539;49.476;8.484;2022-10-16T02:02:26;3.73;;;2.20;;
12947;SDS011;6539;49.476;8.484;2022-10-16T02:04:58;1.87;;;1.50;;
12947;SDS011;6539;49.476;8.484;2022-10-16T02:07:35;3.27;;;1.67;;
12947;SDS011;6539;49.476;8.484;2022-10-16T02:10:04;2.43;;;1.90;;
12947;SDS011;6539;49.476;8.484;2022-10-16T02:12:31;3.43;;;1.90;;
12947;SDS011;6539;49.476;8.484;2022-10-16T02:15:02;3.17;;;1.80;;
12947;SDS011;6539;49.476;8.484;2022-10-16T02:17:28;2.67;;;1.70;;
12947;SDS011;6539;49.476;8.484;2022-10-16T02:19:59;3.57;;;1.87;;
12947;SDS011;6539;49.476;8.484;2022-10-16T02:22:27;3.30;;;1.87;;
12947;SDS011;6539;49.476;8.484;2022-10-16T02:25:27;2.63;;;1.70;;
12947;SDS011;6539;49.476;8.484;2022-10-16T02:30:54;4.40;;;1.90;;
12947;SDS011;6539;49.476;8.484;2022-10-16T02:33:27;6.07;;;2.10;;
12947;SDS011;6539;49.476;8.484;2022-10-16T02:35:56;5.87;;;2.00;;
12947;SDS011;6539;49.476;8.484;2022-10-16T02:38:25;2.33;;;1.87;;
12947;SDS011;6539;49.476;8.484;2022-10-16T02:40:57;4.13;;;2.30;;
12947;SDS011;6539;49.476;8.484;2022-10-16T02:43:24;3.80;;;2.00;;
12947;SDS011;6539;49.476;8.484;2022-10-16T02:45:53;3.03;;;2.20;;
12947;SDS011;6539;49.476;8.484;2022-10-16T02:48:19;4.53;;;2.13;;
12947;SDS011;6539;49.476;8.484;2022-10-16T02:50:45;4.67;;;2.07;;
12947;SDS011;6539;49.476;8.484;2022-10-16T02:53:13;3.67;;;2.10;;
12947;SDS011;6539;49.476;8.484;2022-10-16T02:55:39;4.37;;;2.47;;
12947;SDS011;6539;49.476;8.484;2022-10-16T02:58:07;2.57;;;2.17;;
12947;SDS011;6539;49.476;8.484;2022-10-16T03:00:33;2.90;;;2.47;;
12947;SDS011;6539;49.476;8.484;2022-10-16T03:03:01;3.10;;;2.00;;
12947;SDS011;6539;49.476;8.484;2022-10-16T03:05:27;4.20;;;2.23;;
12947;SDS011;6539;49.476;8.484;2022-10-16T03:07:55;2.77;;;2.30;;
12947;SDS011;6539;49.476;8.484;2022-10-16T03:10:25;4.93;;;2.13;;
12947;SDS011;6539;49.476;8.484;2022-10-16T03:12:52;2.43;;;2.03;;
12947;SDS011;6539;49.476;8.484;2022-10-16T03:15:20;3.90;;;2.30;;
12947;SDS011;6539;49.476;8.484;2022-10-16T03:17:48;2.97;;;2.20;;
12947;SDS011;6539;49.476;8.484;2022-10-16T03:20:15;3.00;;;2.17;;
12947;SDS011;6539;49.476;8.484;2022-10-16T03:22:41;5.00;;;2.10;;
12947;SDS011;6539;49.476;8.484;2022-10-16T03:25:07;2.33;;;2.00;;
12947;SDS011;6539;49.476;8.484;2022-10-16T03:27:35;4.43;;;2.30;;
12947;SDS011;6539;49.476;8.484;2022-10-16T03:30:04;4.57;;;2.30;;
12947;SDS011;6539;49.476;8.484;2022-10-16T03:32:30;9.10;;;2.53;;
12947;SDS011;6539;49.476;8.484;2022-10-16T03:34:56;2.63;;;2.30;;
12947;SDS011;6539;49.476;8.484;2022-10-16T03:37:24;2.27;;;2.03;;
12947;SDS011;6539;49.476;8.484;2022-10-16T03:39:50;4.87;;;2.20;;
12947;SDS011;6539;49.476;8.484;2022-10-16T03:42:16;3.97;;;1.90;;
12947;SDS011;6539;49.476;8.484;2022-10-16T03:44:42;4.30;;;2.30;;
12947;SDS011;6539;49.476;8.484;2022-10-16T03:47:08;5.07;;;2.00;;
12947;SDS011;6539;49.476;8.484;2022-10-16T03:49:36;3.47;;;2.60;;
12947;SDS011;6539;49.476;8.484;2022-10-16T03:52:02;3.73;;;2.20;;
12947;SDS011;6539;49.476;8.484;2022-10-16T03:54:28;2.23;;;2.10;;
12947;SDS011;6539;49.476;8.484;2022-10-16T03:56:54;2.63;;;2.27;;
12947;SDS011;6539;49.476;8.484;2022-10-16T03:59:19;4.00;;;2.47;;
12947;SDS011;6539;49.476;8.484;2022-10-16T04:01:45;3.37;;;2.60;;
12947;SDS011;6539;49.476;8.484;2022-10-16T04:04:11;2.43;;;2.00;;
12947;SDS011;6539;49.476;8.484;2022-10-16T04:06:39;3.73;;;2.60;;
12947;SDS011;6539;49.476;8.484;2022-10-16T04:09:05;5.43;;;2.37;;
12947;SDS011;6539;49.476;8.484;2022-10-16T04:11:30;3.17;;;1.90;;
12947;SDS011;6539;49.476;8.484;2022-10-16T04:14:01;3.03;;;2.43;;
12947;SDS011;6539;49.476;8.484;2022-10-16T04:16:27;3.33;;;2.10;;
12947;SDS011;6539;49.476;8.484;2022-10-16T04:18:53;3.27;;;2.10;;
12947;SDS011;6539;49.476;8.484;2022-10-16T04:21:19;3.37;;;2.23;;
12947;SDS011;6539;49.476;8.484;2022-10-16T04:23:47;5.63;;;2.43;;
12947;SDS011;6539;49.476;8.484;2022-10-16T04:26:14;3.10;;;2.20;;
12947;SDS011;6539;49.476;8.484;2022-10-16T04:28:40;3.03;;;2.73;;
12947;SDS011;6539;49.476;8.484;2022-10-16T04:31:06;7.93;;;3.60;;
12947;SDS011;6539;49.476;8.484;2022-10-16T04:33:32;8.87;;;5.33;;
12947;SDS011;6539;49.476;8.484;2022-10-16T04:35:58;6.27;;;4.90;;
12947;SDS011;6539;49.476;8.484;2022-10-16T04:38:26;6.03;;;5.20;;
12947;SDS011;6539;49.476;8.484;2022-10-16T04:40:52;6.23;;;5.63;;
12947;SDS011;6539;49.476;8.484;2022-10-16T04:43:18;7.00;;;4.70;;
12947;SDS011;6539;49.476;8.484;2022-10-16T04:45:48;7.07;;;5.20;;
12947;SDS011;6539;49.476;8.484;2022-10-16T04:48:16;6.47;;;4.70;;
12947;SDS011;6539;49.476;8.484;2022-10-16T04:50:50;5.07;;;3.87;;
12947;SDS011;6539;49.476;8.484;2022-10-16T04:53:18;4.67;;;4.13;;
12947;SDS011;6539;49.476;8.484;2022-10-16T04:55:44;7.67;;;3.83;;
12947;SDS011;6539;49.476;8.484;2022-10-16T04:58:10;7.90;;;2.90;;
12947;SDS011;6539;49.476;8.484;2022-10-16T05:00:38;4.50;;;3.00;;
12947;SDS011;6539;49.476;8.484;2022-10-16T05:03:04;4.70;;;3.50;;
12947;SDS011;6539;49.476;8.484;2022-10-16T05:05:34;5.50;;;3.30;;
12947;SDS011;6539;49.476;8.484;2022-10-16T05:08:08;5.23;;;2.73;;
12947;SDS011;6539;49.476;8.484;2022-10-16T05:10:36;4.50;;;2.80;;
12947;SDS011;6539;49.476;8.484;2022-10-16T05:13:02;3.33;;;2.60;;
12947;SDS011;6539;49.476;8.484;2022-10-16T05:15:30;4.70;;;2.37;;
12947;SDS011;6539;49.476;8.484;2022-10-16T05:17:56;3.03;;;2.30;;
12947;SDS011;6539;49.476;8.484;2022-10-16T05:20:22;4.50;;;2.83;;
12947;SDS011;6539;49.476;8.484;2022-10-16T05:22:48;4.13;;;2.23;;
12947;SDS011;6539;49.476;8.484;2022-10-16T05:25:17;5.03;;;2.33;;
12947;SDS011;6539;49.476;8.484;2022-10-16T05:27:43;4.20;;;2.47;;
12947;SDS011;6539;49.476;8.484;2022-10-16T05:30:16;9.73;;;2.47;;
12947;SDS011;6539;49.476;8.484;2022-10-16T05:32:48;6.33;;;2.50;;
12947;SDS011;6539;49.476;8.484;2022-10-16T05:35:18;5.20;;;2.60;;
12947;SDS011;6539;49.476;8.484;2022-10-16T05:37:45;4.00;;;2.30;;
12947;SDS011;6539;49.476;8.484;2022-10-16T05:40:12;3.03;;;2.37;;
12947;SDS011;6539;49.476;8.484;2022-10-16T05:42:39;3.50;;;2.10;;
12947;SDS011;6539;49.476;8.484;2022-10-16T05:45:09;2.90;;;2.30;;
12947;SDS011;6539;49.476;8.484;2022-10-16T05:47:37;5.47;;;2.40;;
12947;SDS011;6539;49.476;8.484;2022-10-16T05:50:12;5.00;;;2.40;;
12947;SDS011;6539;49.476;8.484;2022-10-16T05:52:40;2.83;;;1.80;;
12947;SDS011;6539;49.476;8.484;2022-10-16T05:55:06;2.50;;;2.30;;
12947;SDS011;6539;49.476;8.484;2022-10-16T05:57:32;2.67;;;2.30;;
12947;SDS011;6539;49.476;8.484;2022-10-16T05:59:58;4.63;;;2.20;;
12947;SDS011;6539;49.476;8.484;2022-10-16T06:02:26;4.33;;;1.93;;
12947;SDS011;6539;49.476;8.484;2022-10-16T06:04:54;4.23;;;2.07;;
12947;SDS011;6539;49.476;8.484;2022-10-16T06:07:20;2.20;;;2.00;;
12947;SDS011;6539;49.476;8.484;2022-10-16T06:09:52;3.17;;;1.97;;
12947;SDS011;6539;49.476;8.484;2022-10-16T06:12:19;2.27;;;2.00;;
12947;SDS011;6539;49.476;8.484;2022-10-16T06:14:45;2.60;;;1.73;;
12947;SDS011;6539;49.476;8.484;2022-10-16T06:17:17;2.83;;;1.80;;
12947;SDS011;6539;49.476;8.484;2022-10-16T06:19:45;6.03;;;1.67;;
12947;SDS011;6539;49.476;8.484;2022-10-16T06:22:13;4.20;;;1.93;;
12947;SDS011;6539;49.476;8.484;2022-10-16T06:24:41;3.10;;;2.10;;
12947;SDS011;6539;49.476;8.484;2022-10-16T06:27:07;4.67;;;1.80;;
12947;SDS011;6539;49.476;8.484;2022-10-16T06:29:36;5.10;;;2.00;;
12947;SDS011;6539;49.476;8.484;2022-10-16T06:32:04;3.60;;;2.50;;
12947;SDS011;6539;49.476;8.484;2022-10-16T06:34:29;3.20;;;2.10;;
12947;SDS011;6539;49.476;8.484;2022-10-16T06:36:58;3.43;;;1.80;;
12947;SDS011;6539;49.476;8.484;2022-10-16T06:39:23;3.53;;;1.90;;
12947;SDS011;6539;49.476;8.484;2022-10-16T06:41:49;2.00;;;1.80;;
12947;SDS011;6539;49.476;8.484;2022-10-16T06:44:15;2.73;;;2.03;;
12947;SDS011;6539;49.476;8.484;2022-10-16T06:46:41;3.43;;;2.20;;
12947;SDS011;6539;49.476;8.484;2022-10-16T06:49:10;2.00;;;1.90;;
12947;SDS011;6539;49.476;8.484;2022-10-16T06:51:35;2.73;;;1.97;;
12947;SDS011;6539;49.476;8.484;2022-10-16T06:54:05;2.20;;;2.00;;
12947;SDS011;6539;49.476;8.484;2022-10-16T06:56:34;4.68;;;2.30;;
12947;SDS011;6539;49.476;8.484;2022-10-16T06:59:05;4.10;;;2.30;;
12947;SDS011;6539;49.476;8.484;2022-10-16T07:01:31;4.90;;;2.43;;
12947;SDS011;6539;49.476;8.484;2022-10-16T07:03:58;4.63;;;2.33;;
12947;SDS011;6539;49.476;8.484;2022-10-16T07:06:25;4.17;;;2.50;;
12947;SDS011;6539;49.476;8.484;2022-10-16T07:08:52;5.47;;;2.67;;
12947;SDS011;6539;49.476;8.484;2022-10-16T07:11:19;7.07;;;2.60;;
12947;SDS011;6539;49.476;8.484;2022-10-16T07:13:47;4.17;;;2.40;;
12947;SDS011;6539;49.476;8.484;2022-10-16T07:16:18;5.20;;;2.10;;
12947;SDS011;6539;49.476;8.484;2022-10-16T07:18:47;2.53;;;2.00;;
12947;SDS011;6539;49.476;8.484;2022-10-16T07:21:17;3.40;;;2.00;;
12947;SDS011;6539;49.476;8.484;2022-10-16T07:23:45;2.40;;;2.00;;
12947;SDS011;6539;49.476;8.484;2022-10-16T07:26:16;3.77;;;2.50;;
12947;SDS011;6539;49.476;8.484;2022-10-16T07:28:45;2.30;;;2.10;;
12947;SDS011;6539;49.476;8.484;2022-10-16T07:31:13;2.90;;;1.93;;
12947;SDS011;6539;49.476;8.484;2022-10-16T07:33:42;2.67;;;2.27;;
12947;SDS011;6539;49.476;8.484;2022-10-16T07:36:10;3.00;;;2.00;;
12947;SDS011;6539;49.476;8.484;2022-10-16T07:38:39;4.67;;;2.17;;
12947;SDS011;6539;49.476;8.484;2022-10-16T07:41:09;3.47;;;2.20;;
12947;SDS011;6539;49.476;8.484;2022-10-16T07:43:40;5.90;;;2.47;;
12947;SDS011;6539;49.476;8.484;2022-10-16T07:46:12;4.23;;;2.33;;
12947;SDS011;6539;49.476;8.484;2022-10-16T07:48:39;4.23;;;1.97;;
12947;SDS011;6539;49.476;8.484;2022-10-16T07:51:07;3.50;;;1.60;;
12947;SDS011;6539;49.476;8.484;2022-10-16T07:53:34;3.50;;;2.37;;
12947;SDS011;6539;49.476;8.484;2022-10-16T07:56:00;3.03;;;2.07;;
12947;SDS011;6539;49.476;8.484;2022-10-16T07:58:30;5.87;;;2.50;;
12947;SDS011;6539;49.476;8.484;2022-10-16T08:01:05;4.07;;;2.40;;
12947;SDS011;6539;49.476;8.484;2022-10-16T08:03:34;2.83;;;2.20;;
12947;SDS011;6539;49.476;8.484;2022-10-16T08:06:01;5.27;;;3.00;;
12947;SDS011;6539;49.476;8.484;2022-10-16T08:08:28;4.27;;;2.87;;
12947;SDS011;6539;49.476;8.484;2022-10-16T08:10:54;4.30;;;2.63;;
12947;SDS011;6539;49.476;8.484;2022-10-16T08:13:25;2.60;;;2.37;;
12947;SDS011;6539;49.476;8.484;2022-10-16T08:15:54;3.83;;;2.30;;
12947;SDS011;6539;49.476;8.484;2022-10-16T08:18:20;4.33;;;2.70;;
12947;SDS011;6539;49.476;8.484;2022-10-16T08:20:56;3.83;;;2.60;;
12947;SDS011;6539;49.476;8.484;2022-10-16T08:23:24;4.27;;;3.70;;
12947;SDS011;6539;49.476;8.484;2022-10-16T08:25:54;4.27;;;2.63;;
12947;SDS011;6539;49.476;8.484;2022-10-16T08:28:23;5.27;;;2.70;;
12947;SDS011;6539;49.476;8.484;2022-10-16T08:30:49;9.03;;;2.17;;
12947;SDS011;6539;49.476;8.484;2022-10-16T08:33:20;4.17;;;2.60;;
12947;SDS011;6539;49.476;8.484;2022-10-16T08:35:52;4.40;;;2.47;;
12947;SDS011;6539;49.476;8.484;2022-10-16T08:38:19;3.30;;;2.40;;
12947;SDS011;6539;49.476;8.484;2022-10-16T08:40:45;7.33;;;2.77;;
12947;SDS011;6539;49.476;8.484;2022-10-16T08:49:05;6.30;;;2.53;;
12947;SDS011;6539;49.476;8.484;2022-10-16T08:51:40;3.80;;;2.43;;
12947;SDS011;6539;49.476;8.484;2022-10-16T08:54:19;7.03;;;3.20;;
12947;SDS011;6539;49.476;8.484;2022-10-16T08:57:12;4.77;;;2.93;;
12947;SDS011;6539;49.476;8.484;2022-10-16T08:59:48;8.90;;;3.43;;
12947;SDS011;6539;49.476;8.484;2022-10-16T09:02:29;6.50;;;3.00;;
12947;SDS011;6539;49.476;8.484;2022-10-16T09:14:18;6.17;;;3.33;;
12947;SDS011;6539;49.476;8.484;2022-10-16T09:17:41;3.57;;;2.73;;
12947;SDS011;6539;49.476;8.484;2022-10-16T09:20:53;4.53;;;2.47;;
12947;SDS011;6539;49.476;8.484;2022-10-16T09:23:32;4.23;;;2.60;;
12947;SDS011;6539;49.476;8.484;2022-10-16T09:26:01;5.37;;;3.30;;
12947;SDS011;6539;49.476;8.484;2022-10-16T09:28:30;5.63;;;2.40;;
12947;SDS011;6539;49.476;8.484;2022-10-16T09:30:56;4.10;;;2.70;;
12947;SDS011;6539;49.476;8.484;2022-10-16T09:33:23;6.23;;;3.10;;
12947;SDS011;6539;49.476;8.484;2022-10-16T09:35:57;6.17;;;2.83;;
12947;SDS011;6539;49.476;8.484;2022-10-16T09:38:28;3.27;;;2.30;;
12947;SDS011;6539;49.476;8.484;2022-10-16T09:40:57;5.57;;;2.70;;
12947;SDS011;6539;49.476;8.484;2022-10-16T09:43:27;4.60;;;2.57;;
12947;SDS011;6539;49.476;8.484;2022-10-16T09:46:07;5.63;;;2.20;;
12947;SDS011;6539;49.476;8.484;2022-10-16T09:48:48;8.10;;;2.53;;
12947;SDS011;6539;49.476;8.484;2022-10-16T09:51:21;4.63;;;2.40;;
12947;SDS011;6539;49.476;8.484;2022-10-16T09:54:13;2.90;;;2.40;;
12947;SDS011;6539;49.476;8.484;2022-10-16T09:56:41;6.27;;;2.70;;
12947;SDS011;6539;49.476;8.484;2022-10-16T09:59:22;3.60;;;2.80;;
12947;SDS011;6539;49.476;8.484;2022-10-16T10:01:55;3.20;;;2.53;;
12947;SDS011;6539;49.476;8.484;2022-10-16T10:04:36;5.00;;;2.60;;
12947;SDS011;6539;49.476;8.484;2022-10-16T10:07:06;3.20;;;1.90;;
12947;SDS011;6539;49.476;8.484;2022-10-16T10:09:58;2.57;;;2.37;;
12947;SDS011;6539;49.476;8.484;2022-10-16T10:12:27;4.53;;;2.33;;
12947;SDS011;6539;49.476;8.484;2022-10-16T10:15:07;2.37;;;2.00;;
12947;SDS011;6539;49.476;8.484;2022-10-16T10:22:55;4.80;;;1.90;;
12947;SDS011;6539;49.476;8.484;2022-10-16T10:31:20;3.90;;;1.90;;
12947;SDS011;6539;49.476;8.484;2022-10-16T10:46:14;4.17;;;2.30;;
12947;SDS011;6539;49.476;8.484;2022-10-16T10:49:08;3.80;;;2.30;;
12947;SDS011;6539;49.476;8.484;2022-10-16T10:57:07;2.37;;;2.13;;
12947;SDS011;6539;49.476;8.484;2022-10-16T11:05:59;2.30;;;2.00;;
12947;SDS011;6539;49.476;8.484;2022-10-16T11:08:36;3.03;;;2.17;;
12947;SDS011;6539;49.476;8.484;2022-10-16T11:11:23;10.40;;;6.40;;
12947;SDS011;6539;49.476;8.484;2022-10-16T11:14:26;11.47;;;9.17;;
12947;SDS011;6539;49.476;8.484;2022-10-16T11:17:39;16.60;;;11.93;;
12947;SDS011;6539;49.476;8.484;2022-10-16T11:22:46;3.33;;;2.50;;
12947;SDS011;6539;49.476;8.484;2022-10-16T11:25:31;3.67;;;2.93;;
12947;SDS011;6539;49.476;8.484;2022-10-16T11:33:52;12.17;;;8.37;;
12947;SDS011;6539;49.476;8.484;2022-10-16T11:39:33;3.20;;;2.10;;
12947;SDS011;6539;49.476;8.484;2022-10-16T11:42:03;3.70;;;2.83;;
12947;SDS011;6539;49.476;8.484;2022-10-16T11:47:24;4.67;;;3.00;;
12947;SDS011;6539;49.476;8.484;2022-10-16T11:50:12;4.83;;;3.07;;
12947;SDS011;6539;49.476;8.484;2022-10-16T11:55:56;5.33;;;3.23;;
12947;SDS011;6539;49.476;8.484;2022-10-16T12:03:56;6.63;;;3.27;;
12947;SDS011;6539;49.476;8.484;2022-10-16T12:07:03;4.57;;;2.57;;
12947;SDS011;6539;49.476;8.484;2022-10-16T12:09:39;3.67;;;2.60;;
12947;SDS011;6539;49.476;8.484;2022-10-16T12:12:37;4.10;;;2.80;;
12947;SDS011;6539;49.476;8.484;2022-10-16T12:15:25;5.57;;;3.77;;
12947;SDS011;6539;49.476;8.484;2022-10-16T12:17:59;3.40;;;2.40;;
12947;SDS011;6539;49.476;8.484;2022-10-16T12:20:29;3.40;;;2.73;;
12947;SDS011;6539;49.476;8.484;2022-10-16T12:23:02;5.50;;;3.70;;
12947;SDS011;6539;49.476;8.484;2022-10-16T12:25:44;4.43;;;2.33;;
12947;SDS011;6539;49.476;8.484;2022-10-16T12:28:31;7.17;;;2.60;;
12947;SDS011;6539;49.476;8.484;2022-10-16T12:30:59;5.77;;;3.90;;
12947;SDS011;6539;49.476;8.484;2022-10-16T12:33:33;3.10;;;2.70;;
12947;SDS011;6539;49.476;8.484;2022-10-16T12:36:13;6.60;;;3.10;;
12947;SDS011;6539;49.476;8.484;2022-10-16T12:38:54;2.77;;;2.50;;
12947;SDS011;6539;49.476;8.484;2022-10-16T12:41:38;4.00;;;2.70;;
12947;SDS011;6539;49.476;8.484;2022-10-16T12:44:05;4.77;;;2.90;;
12947;SDS011;6539;49.476;8.484;2022-10-16T12:46:49;4.47;;;3.17;;
12947;SDS011;6539;49.476;8.484;2022-10-16T12:51:57;3.33;;;3.03;;
12947;SDS011;6539;49.476;8.484;2022-10-16T13:02:23;6.93;;;2.80;;
12947;SDS011;6539;49.476;8.484;2022-10-16T13:11:05;4.23;;;2.87;;
12947;SDS011;6539;49.476;8.484;2022-10-16T13:17:08;4.50;;;2.67;;
12947;SDS011;6539;49.476;8.484;2022-10-16T13:20:13;3.00;;;2.80;;
12947;SDS011;6539;49.476;8.484;2022-10-16T13:29:01;3.63;;;2.40;;
12947;SDS011;6539;49.476;8.484;2022-10-16T13:31:27;5.20;;;2.43;;
12947;SDS011;6539;49.476;8.484;2022-10-16T13:33:56;3.27;;;2.53;;
12947;SDS011;6539;49.476;8.484;2022-10-16T13:36:34;4.90;;;2.13;;
12947;SDS011;6539;49.476;8.484;2022-10-16T13:42:02;4.17;;;2.23;;
12947;SDS011;6539;49.476;8.484;2022-10-16T13:44:35;5.23;;;2.40;;
12947;SDS011;6539;49.476;8.484;2022-10-16T13:47:17;5.40;;;2.40;;
12947;SDS011;6539;49.476;8.484;2022-10-16T13:49:59;2.80;;;2.37;;
12947;SDS011;6539;49.476;8.484;2022-10-16T13:52:38;7.90;;;2.97;;
12947;SDS011;6539;49.476;8.484;2022-10-16T13:55:13;4.87;;;2.53;;
12947;SDS011;6539;49.476;8.484;2022-10-16T13:57:41;4.73;;;2.50;;
12947;SDS011;6539;49.476;8.484;2022-10-16T14:00:25;5.07;;;2.40;;
12947;SDS011;6539;49.476;8.484;2022-10-16T14:03:00;4.47;;;2.70;;
12947;SDS011;6539;49.476;8.484;2022-10-16T14:05:32;2.67;;;2.40;;
12947;SDS011;6539;49.476;8.484;2022-10-16T14:07:59;5.17;;;2.80;;
12947;SDS011;6539;49.476;8.484;2022-10-16T14:10:31;3.30;;;2.47;;
12947;SDS011;6539;49.476;8.484;2022-10-16T14:12:59;4.00;;;2.73;;
12947;SDS011;6539;49.476;8.484;2022-10-16T14:15:34;6.60;;;2.63;;
12947;SDS011;6539;49.476;8.484;2022-10-16T14:18:01;3.53;;;2.57;;
12947;SDS011;6539;49.476;8.484;2022-10-16T14:20:32;3.03;;;2.73;;
12947;SDS011;6539;49.476;8.484;2022-10-16T14:23:00;3.43;;;2.97;;
12947;SDS011;6539;49.476;8.484;2022-10-16T14:28:38;4.17;;;3.10;;
12947;SDS011;6539;49.476;8.484;2022-10-16T14:33:56;5.97;;;3.90;;
12947;SDS011;6539;49.476;8.484;2022-10-16T14:36:26;6.17;;;3.47;;
12947;SDS011;6539;49.476;8.484;2022-10-16T14:41:43;5.20;;;2.67;;
12947;SDS011;6539;49.476;8.484;2022-10-16T14:44:14;2.73;;;2.30;;
12947;SDS011;6539;49.476;8.484;2022-10-16T14:46:44;4.87;;;2.60;;
12947;SDS011;6539;49.476;8.484;2022-10-16T14:51:39;4.17;;;2.90;;
12947;SDS011;6539;49.476;8.484;2022-10-16T14:54:14;3.10;;;2.40;;
12947;SDS011;6539;49.476;8.484;2022-10-16T14:56:55;12.67;;;2.93;;
12947;SDS011;6539;49.476;8.484;2022-10-16T14:59:46;7.27;;;2.80;;
12947;SDS011;6539;49.476;8.484;2022-10-16T15:04:57;3.37;;;2.87;;
12947;SDS011;6539;49.476;8.484;2022-10-16T15:07:53;4.00;;;2.37;;
12947;SDS011;6539;49.476;8.484;2022-10-16T15:10:20;4.30;;;2.63;;
12947;SDS011;6539;49.476;8.484;2022-10-16T15:12:56;6.90;;;2.87;;
12947;SDS011;6539;49.476;8.484;2022-10-16T15:15:31;4.87;;;2.30;;
12947;SDS011;6539;49.476;8.484;2022-10-16T15:18:06;5.53;;;2.43;;
12947;SDS011;6539;49.476;8.484;2022-10-16T15:20:35;5.23;;;2.53;;
12947;SDS011;6539;49.476;8.484;2022-10-16T15:23:04;3.23;;;2.60;;
12947;SDS011;6539;49.476;8.484;2022-10-16T15:25:43;6.53;;;2.60;;
12947;SDS011;6539;49.476;8.484;2022-10-16T15:28:18;3.50;;;2.60;;
12947;SDS011;6539;49.476;8.484;2022-10-16T15:30:46;5.97;;;2.63;;
12947;SDS011;6539;49.476;8.484;2022-10-16T15:33:18;6.13;;;2.50;;
12947;SDS011;6539;49.476;8.484;2022-10-16T15:35:51;3.40;;;2.57;;
12947;SDS011;6539;49.476;8.484;2022-10-16T15:38:18;2.17;;;1.93;;
12947;SDS011;6539;49.476;8.484;2022-10-16T15:40:47;4.23;;;2.53;;
12947;SDS011;6539;49.476;8.484;2022-10-16T15:43:16;4.13;;;2.37;;
12947;SDS011;6539;49.476;8.484;2022-10-16T15:45:47;5.37;;;2.57;;
12947;SDS011;6539;49.476;8.484;2022-10-16T15:48:31;3.27;;;2.50;;
12947;SDS011;6539;49.476;8.484;2022-10-16T15:50:59;3.60;;;2.77;;
12947;SDS011;6539;49.476;8.484;2022-10-16T15:53:30;6.43;;;2.77;;
12947;SDS011;6539;49.476;8.484;2022-10-16T15:56:04;5.47;;;2.13;;
12947;SDS011;6539;49.476;8.484;2022-10-16T15:58:34;5.53;;;2.43;;
12947;SDS011;6539;49.476;8.484;2022-10-16T16:01:00;4.50;;;2.60;;
12947;SDS011;6539;49.476;8.484;2022-10-16T16:03:29;3.33;;;2.47;;
12947;SDS011;6539;49.476;8.484;2022-10-16T16:05:57;7.07;;;3.10;;
12947;SDS011;6539;49.476;8.484;2022-10-16T16:08:23;4.33;;;3.40;;
12947;SDS011;6539;49.476;8.484;2022-10-16T16:10:58;4.63;;;2.47;;
12947;SDS011;6539;49.476;8.484;2022-10-16T16:13:29;4.27;;;2.57;;
12947;SDS011;6539;49.476;8.484;2022-10-16T16:15:58;3.87;;;2.87;;
12947;SDS011;6539;49.476;8.484;2022-10-16T16:18:24;3.87;;;2.70;;
12947;SDS011;6539;49.476;8.484;2022-10-16T16:20:50;5.50;;;3.20;;
12947;SDS011;6539;49.476;8.484;2022-10-16T16:23:19;4.20;;;2.80;;
12947;SDS011;6539;49.476;8.484;2022-10-16T16:25:45;6.15;;;4.45;;
12947;SDS011;6539;49.476;8.484;2022-10-16T16:28:37;10.27;;;4.03;;
12947;SDS011;6539;49.476;8.484;2022-10-16T16:31:07;4.03;;;3.40;;
12947;SDS011;6539;49.476;8.484;2022-10-16T16:33:33;8.07;;;4.00;;
12947;SDS011;6539;49.476;8.484;2022-10-16T16:36:00;6.73;;;3.23;;
12947;SDS011;6539;49.476;8.484;2022-10-16T16:38:33;7.50;;;5.27;;
12947;SDS011;6539;49.476;8.484;2022-10-16T16:40:59;14.13;;;5.30;;
12947;SDS011;6539;49.476;8.484;2022-10-16T16:43:27;7.20;;;5.43;;
12947;SDS011;6539;49.476;8.484;2022-10-16T16:45:53;6.00;;;5.07;;
12947;SDS011;6539;49.476;8.484;2022-10-16T16:48:22;6.37;;;4.97;;
12947;SDS011;6539;49.476;8.484;2022-10-16T16:50:47;5.93;;;4.60;;
12947;SDS011;6539;49.476;8.484;2022-10-16T16:53:18;11.67;;;4.10;;
12947;SDS011;6539;49.476;8.484;2022-10-16T16:55:46;6.53;;;3.83;;
12947;SDS011;6539;49.476;8.484;2022-10-16T16:58:14;9.73;;;4.03;;
12947;SDS011;6539;49.476;8.484;2022-10-16T17:00:46;5.53;;;3.60;;
12947;SDS011;6539;49.476;8.484;2022-10-16T17:03:12;4.30;;;3.70;;
12947;SDS011;6539;49.476;8.484;2022-10-16T17:05:38;7.77;;;4.07;;
12947;SDS011;6539;49.476;8.484;2022-10-16T17:08:06;5.10;;;3.97;;
12947;SDS011;6539;49.476;8.484;2022-10-16T17:10:41;6.40;;;4.50;;
12947;SDS011;6539;49.476;8.484;2022-10-16T17:13:08;8.37;;;4.90;;
12947;SDS011;6539;49.476;8.484;2022-10-16T17:15:34;6.43;;;4.47;;
12947;SDS011;6539;49.476;8.484;2022-10-16T17:17:59;6.40;;;4.47;;
12947;SDS011;6539;49.476;8.484;2022-10-16T17:20:25;7.93;;;4.33;;
12947;SDS011;6539;49.476;8.484;2022-10-16T17:22:53;8.53;;;5.10;;
12947;SDS011;6539;49.476;8.484;2022-10-16T17:25:21;8.90;;;4.83;;
12947;SDS011;6539;49.476;8.484;2022-10-16T17:27:47;7.00;;;4.47;;
12947;SDS011;6539;49.476;8.484;2022-10-16T17:30:12;8.07;;;6.43;;
12947;SDS011;6539;49.476;8.484;2022-10-16T17:32:38;9.67;;;6.63;;
12947;SDS011;6539;49.476;8.484;2022-10-16T17:35:04;19.47;;;12.27;;
12947;SDS011;6539;49.476;8.484;2022-10-16T17:37:30;9.13;;;7.17;;